sensor_id;sensor_type;location;lat;lon;timestamp;P1;durP1;ratioP1;P2;durP2;ratioP2
75044;SDS011;63614;56.026;35.960;2023-05-14T00:00:41;9.25;;;4.15;;
75044;SDS011;63614;56.026;35.960;2023-05-14T00:03:07;13.38;;;4.50;;
75044;SDS011;63614;56.026;35.960;2023-05-14T00:05:33;6.60;;;4.18;;
75044;SDS011;63614;56.026;35.960;2023-05-14T00:07:58;10.07;;;4.63;;
75044;SDS011;63614;56.026;35.960;2023-05-14T00:10:25;14.38;;;4.78;;
75044;SDS011;63614;56.026;35.960;2023-05-14T00:12:52;12.80;;;4.55;;
75044;SDS011;63614;56.026;35.960;2023-05-14T00:15:20;11.57;;;4.65;;
75044;SDS011;63614;56.026;35.960;2023-05-14T00:17:46;13.57;;;4.63;;
75044;SDS011;63614;56.026;35.960;2023-05-14T00:20:12;10.13;;;4.60;;
75044;SDS011;63614;56.026;35.960;2023-05-14T00:22:40;9.50;;;4.50;;
75044;SDS011;63614;56.026;35.960;2023-05-14T00:25:07;8.63;;;4.65;;
75044;SDS011;63614;56.026;35.960;2023-05-14T00:27:33;13.63;;;4.95;;
75044;SDS011;63614;56.026;35.960;2023-05-14T00:30:03;10.05;;;5.05;;
75044;SDS011;63614;56.026;35.960;2023-05-14T00:32:33;10.82;;;4.25;;
75044;SDS011;63614;56.026;35.960;2023-05-14T00:35:01;10.95;;;4.80;;
75044;SDS011;63614;56.026;35.960;2023-05-14T00:37:29;12.60;;;4.82;;
75044;SDS011;63614;56.026;35.960;2023-05-14T00:39:55;9.55;;;4.80;;
75044;SDS011;63614;56.026;35.960;2023-05-14T00:42:23;6.72;;;4.53;;
75044;SDS011;63614;56.026;35.960;2023-05-14T00:44:52;8.43;;;4.75;;
75044;SDS011;63614;56.026;35.960;2023-05-14T00:47:17;11.80;;;4.80;;
75044;SDS011;63614;56.026;35.960;2023-05-14T00:49:43;9.52;;;4.57;;
75044;SDS011;63614;56.026;35.960;2023-05-14T00:52:10;14.15;;;5.30;;
75044;SDS011;63614;56.026;35.960;2023-05-14T00:54:36;10.43;;;5.07;;
75044;SDS011;63614;56.026;35.960;2023-05-14T00:57:02;13.25;;;5.32;;
75044;SDS011;63614;56.026;35.960;2023-05-14T00:59:29;13.40;;;4.85;;
75044;SDS011;63614;56.026;35.960;2023-05-14T01:01:54;17.52;;;4.90;;
75044;SDS011;63614;56.026;35.960;2023-05-14T01:04:20;9.48;;;4.82;;
75044;SDS011;63614;56.026;35.960;2023-05-14T01:14:54;14.15;;;5.43;;
75044;SDS011;63614;56.026;35.960;2023-05-14T01:19:54;8.18;;;4.60;;
75044;SDS011;63614;56.026;35.960;2023-05-14T01:22:24;10.55;;;4.65;;
75044;SDS011;63614;56.026;35.960;2023-05-14T01:24:50;12.45;;;5.00;;
75044;SDS011;63614;56.026;35.960;2023-05-14T01:27:36;9.07;;;4.80;;
75044;SDS011;63614;56.026;35.960;2023-05-14T01:32:47;8.05;;;5.18;;
75044;SDS011;63614;56.026;35.960;2023-05-14T01:35:19;11.52;;;5.10;;
75044;SDS011;63614;56.026;35.960;2023-05-14T01:37:48;17.30;;;5.35;;
75044;SDS011;63614;56.026;35.960;2023-05-14T01:40:15;13.77;;;5.47;;
75044;SDS011;63614;56.026;35.960;2023-05-14T01:42:41;14.88;;;5.32;;
75044;SDS011;63614;56.026;35.960;2023-05-14T01:45:10;10.77;;;4.80;;
75044;SDS011;63614;56.026;35.960;2023-05-14T01:47:36;13.88;;;4.68;;
75044;SDS011;63614;56.026;35.960;2023-05-14T01:50:01;6.10;;;3.80;;
75044;SDS011;63614;56.026;35.960;2023-05-14T01:52:30;15.88;;;5.07;;
75044;SDS011;63614;56.026;35.960;2023-05-14T01:54:56;9.30;;;4.47;;
75044;SDS011;63614;56.026;35.960;2023-05-14T01:57:22;10.68;;;4.60;;
75044;SDS011;63614;56.026;35.960;2023-05-14T01:59:48;17.48;;;4.70;;
75044;SDS011;63614;56.026;35.960;2023-05-14T02:02:14;13.52;;;4.68;;
75044;SDS011;63614;56.026;35.960;2023-05-14T02:04:42;9.95;;;4.43;;
75044;SDS011;63614;56.026;35.960;2023-05-14T02:07:11;13.35;;;5.05;;
75044;SDS011;63614;56.026;35.960;2023-05-14T02:09:36;13.48;;;4.78;;
75044;SDS011;63614;56.026;35.960;2023-05-14T02:12:03;14.25;;;5.10;;
75044;SDS011;63614;56.026;35.960;2023-05-14T02:14:29;14.02;;;4.65;;
75044;SDS011;63614;56.026;35.960;2023-05-14T02:16:55;18.58;;;4.18;;
75044;SDS011;63614;56.026;35.960;2023-05-14T02:19:24;10.48;;;3.70;;
75044;SDS011;63614;56.026;35.960;2023-05-14T02:22:10;11.02;;;3.92;;
75044;SDS011;63614;56.026;35.960;2023-05-14T02:24:35;17.67;;;4.55;;
75044;SDS011;63614;56.026;35.960;2023-05-14T02:27:01;21.70;;;4.60;;
75044;SDS011;63614;56.026;35.960;2023-05-14T02:29:27;9.88;;;3.80;;
75044;SDS011;63614;56.026;35.960;2023-05-14T02:31:53;15.35;;;3.70;;
75044;SDS011;63614;56.026;35.960;2023-05-14T02:34:19;8.55;;;3.30;;
75044;SDS011;63614;56.026;35.960;2023-05-14T02:36:45;5.93;;;3.43;;
75044;SDS011;63614;56.026;35.960;2023-05-14T02:39:12;10.37;;;3.23;;
75044;SDS011;63614;56.026;35.960;2023-05-14T02:41:38;12.32;;;3.30;;
75044;SDS011;63614;56.026;35.960;2023-05-14T02:44:04;16.77;;;3.38;;
75044;SDS011;63614;56.026;35.960;2023-05-14T02:46:30;13.38;;;3.38;;
75044;SDS011;63614;56.026;35.960;2023-05-14T02:48:57;11.63;;;4.10;;
75044;SDS011;63614;56.026;35.960;2023-05-14T02:51:25;16.80;;;3.63;;
75044;SDS011;63614;56.026;35.960;2023-05-14T02:53:53;4.93;;;3.20;;
75044;SDS011;63614;56.026;35.960;2023-05-14T02:56:19;7.78;;;3.25;;
75044;SDS011;63614;56.026;35.960;2023-05-14T02:58:45;7.40;;;3.47;;
75044;SDS011;63614;56.026;35.960;2023-05-14T03:01:12;9.18;;;2.90;;
75044;SDS011;63614;56.026;35.960;2023-05-14T03:03:38;6.88;;;2.63;;
75044;SDS011;63614;56.026;35.960;2023-05-14T03:06:07;16.48;;;3.17;;
75044;SDS011;63614;56.026;35.960;2023-05-14T03:08:32;9.57;;;2.85;;
75044;SDS011;63614;56.026;35.960;2023-05-14T03:10:58;10.43;;;3.17;;
75044;SDS011;63614;56.026;35.960;2023-05-14T03:13:24;21.67;;;3.05;;
75044;SDS011;63614;56.026;35.960;2023-05-14T03:15:50;4.28;;;2.40;;
75044;SDS011;63614;56.026;35.960;2023-05-14T03:18:19;8.32;;;2.60;;
75044;SDS011;63614;56.026;35.960;2023-05-14T03:20:48;4.65;;;2.25;;
75044;SDS011;63614;56.026;35.960;2023-05-14T03:23:14;4.25;;;2.30;;
75044;SDS011;63614;56.026;35.960;2023-05-14T03:25:40;5.00;;;2.50;;
75044;SDS011;63614;56.026;35.960;2023-05-14T03:28:06;6.55;;;2.50;;
75044;SDS011;63614;56.026;35.960;2023-05-14T03:30:32;7.60;;;2.13;;
75044;SDS011;63614;56.026;35.960;2023-05-14T03:32:58;8.35;;;2.40;;
75044;SDS011;63614;56.026;35.960;2023-05-14T03:35:24;7.00;;;2.13;;
75044;SDS011;63614;56.026;35.960;2023-05-14T03:37:50;4.90;;;2.00;;
75044;SDS011;63614;56.026;35.960;2023-05-14T03:40:17;6.20;;;2.20;;
75044;SDS011;63614;56.026;35.960;2023-05-14T03:42:43;6.43;;;2.17;;
75044;SDS011;63614;56.026;35.960;2023-05-14T03:45:14;6.93;;;2.10;;
75044;SDS011;63614;56.026;35.960;2023-05-14T03:47:40;10.63;;;2.30;;
75044;SDS011;63614;56.026;35.960;2023-05-14T03:50:06;3.75;;;2.20;;
75044;SDS011;63614;56.026;35.960;2023-05-14T03:52:33;8.98;;;2.00;;
75044;SDS011;63614;56.026;35.960;2023-05-14T03:55:01;6.28;;;2.13;;
75044;SDS011;63614;56.026;35.960;2023-05-14T03:57:27;8.97;;;2.10;;
75044;SDS011;63614;56.026;35.960;2023-05-14T03:59:54;4.53;;;1.92;;
75044;SDS011;63614;56.026;35.960;2023-05-14T04:02:20;8.93;;;2.15;;
75044;SDS011;63614;56.026;35.960;2023-05-14T04:04:46;7.18;;;2.03;;
75044;SDS011;63614;56.026;35.960;2023-05-14T04:07:15;16.52;;;2.50;;
75044;SDS011;63614;56.026;35.960;2023-05-14T04:09:41;4.15;;;1.85;;
75044;SDS011;63614;56.026;35.960;2023-05-14T04:12:07;21.50;;;2.27;;
75044;SDS011;63614;56.026;35.960;2023-05-14T04:14:36;18.58;;;2.17;;
75044;SDS011;63614;56.026;35.960;2023-05-14T04:17:02;6.43;;;1.90;;
75044;SDS011;63614;56.026;35.960;2023-05-14T04:19:28;9.13;;;1.73;;
75044;SDS011;63614;56.026;35.960;2023-05-14T04:21:54;4.73;;;1.87;;
75044;SDS011;63614;56.026;35.960;2023-05-14T04:24:19;3.70;;;1.67;;
75044;SDS011;63614;56.026;35.960;2023-05-14T04:26:45;3.03;;;1.70;;
75044;SDS011;63614;56.026;35.960;2023-05-14T04:29:11;4.80;;;1.88;;
75044;SDS011;63614;56.026;35.960;2023-05-14T04:31:37;3.70;;;1.60;;
75044;SDS011;63614;56.026;35.960;2023-05-14T04:34:02;2.80;;;1.63;;
75044;SDS011;63614;56.026;35.960;2023-05-14T04:36:28;5.10;;;1.60;;
75044;SDS011;63614;56.026;35.960;2023-05-14T04:38:54;3.73;;;1.50;;
75044;SDS011;63614;56.026;35.960;2023-05-14T04:41:20;4.03;;;1.50;;
75044;SDS011;63614;56.026;35.960;2023-05-14T04:43:48;6.07;;;1.67;;
75044;SDS011;63614;56.026;35.960;2023-05-14T04:46:15;2.85;;;1.63;;
75044;SDS011;63614;56.026;35.960;2023-05-14T04:48:40;3.60;;;1.30;;
75044;SDS011;63614;56.026;35.960;2023-05-14T04:51:06;3.97;;;1.53;;
75044;SDS011;63614;56.026;35.960;2023-05-14T04:53:32;3.58;;;1.50;;
75044;SDS011;63614;56.026;35.960;2023-05-14T04:55:58;3.40;;;1.70;;
75044;SDS011;63614;56.026;35.960;2023-05-14T04:58:24;7.40;;;1.93;;
75044;SDS011;63614;56.026;35.960;2023-05-14T05:00:53;3.50;;;1.63;;
75044;SDS011;63614;56.026;35.960;2023-05-14T05:03:18;2.87;;;1.67;;
75044;SDS011;63614;56.026;35.960;2023-05-14T05:05:44;2.90;;;1.70;;
75044;SDS011;63614;56.026;35.960;2023-05-14T05:08:10;3.77;;;2.00;;
75044;SDS011;63614;56.026;35.960;2023-05-14T05:10:36;3.13;;;1.63;;
75044;SDS011;63614;56.026;35.960;2023-05-14T05:13:01;5.40;;;1.63;;
75044;SDS011;63614;56.026;35.960;2023-05-14T05:15:30;3.38;;;1.70;;
75044;SDS011;63614;56.026;35.960;2023-05-14T05:17:56;2.70;;;1.63;;
75044;SDS011;63614;56.026;35.960;2023-05-14T05:20:21;1.87;;;1.40;;
75044;SDS011;63614;56.026;35.960;2023-05-14T05:22:49;3.65;;;1.52;;
75044;SDS011;63614;56.026;35.960;2023-05-14T05:25:17;3.33;;;1.83;;
75044;SDS011;63614;56.026;35.960;2023-05-14T05:27:43;3.50;;;1.40;;
75044;SDS011;63614;56.026;35.960;2023-05-14T05:30:11;6.18;;;1.75;;
75044;SDS011;63614;56.026;35.960;2023-05-14T05:32:37;10.83;;;1.60;;
75044;SDS011;63614;56.026;35.960;2023-05-14T05:35:02;2.90;;;1.50;;
75044;SDS011;63614;56.026;35.960;2023-05-14T05:37:29;1.63;;;1.20;;
75044;SDS011;63614;56.026;35.960;2023-05-14T05:39:55;1.75;;;1.30;;
75044;SDS011;63614;56.026;35.960;2023-05-14T05:42:20;2.90;;;1.50;;
75044;SDS011;63614;56.026;35.960;2023-05-14T05:44:46;2.30;;;1.70;;
75044;SDS011;63614;56.026;35.960;2023-05-14T05:47:12;2.50;;;1.50;;
75044;SDS011;63614;56.026;35.960;2023-05-14T05:49:38;2.33;;;1.40;;
75044;SDS011;63614;56.026;35.960;2023-05-14T05:52:04;2.43;;;1.60;;
75044;SDS011;63614;56.026;35.960;2023-05-14T05:54:30;3.57;;;1.50;;
75044;SDS011;63614;56.026;35.960;2023-05-14T05:56:58;5.47;;;1.80;;
75044;SDS011;63614;56.026;35.960;2023-05-14T05:59:25;6.70;;;1.40;;
75044;SDS011;63614;56.026;35.960;2023-05-14T06:01:51;2.27;;;1.30;;
75044;SDS011;63614;56.026;35.960;2023-05-14T06:04:16;1.63;;;1.00;;
75044;SDS011;63614;56.026;35.960;2023-05-14T06:06:42;8.27;;;1.30;;
75044;SDS011;63614;56.026;35.960;2023-05-14T06:09:08;7.00;;;1.17;;
75044;SDS011;63614;56.026;35.960;2023-05-14T06:11:34;1.73;;;1.00;;
75044;SDS011;63614;56.026;35.960;2023-05-14T06:14:00;2.53;;;1.00;;
75044;SDS011;63614;56.026;35.960;2023-05-14T06:16:26;5.53;;;1.00;;
75044;SDS011;63614;56.026;35.960;2023-05-14T06:18:52;4.40;;;1.20;;
75044;SDS011;63614;56.026;35.960;2023-05-14T06:21:21;4.93;;;1.10;;
75044;SDS011;63614;56.026;35.960;2023-05-14T06:23:48;3.08;;;1.33;;
75044;SDS011;63614;56.026;35.960;2023-05-14T06:26:13;5.68;;;2.03;;
75044;SDS011;63614;56.026;35.960;2023-05-14T06:28:39;2.45;;;1.02;;
75044;SDS011;63614;56.026;35.960;2023-05-14T06:31:05;6.05;;;1.23;;
75044;SDS011;63614;56.026;35.960;2023-05-14T06:33:49;7.75;;;1.27;;
75044;SDS011;63614;56.026;35.960;2023-05-14T06:36:15;8.10;;;1.20;;
75044;SDS011;63614;56.026;35.960;2023-05-14T06:38:41;2.50;;;1.20;;
75044;SDS011;63614;56.026;35.960;2023-05-14T06:41:07;2.13;;;1.25;;
75044;SDS011;63614;56.026;35.960;2023-05-14T06:43:33;2.10;;;0.93;;
75044;SDS011;63614;56.026;35.960;2023-05-14T06:45:59;3.17;;;1.20;;
75044;SDS011;63614;56.026;35.960;2023-05-14T06:48:25;1.50;;;0.90;;
75044;SDS011;63614;56.026;35.960;2023-05-14T06:50:53;4.88;;;1.20;;
75044;SDS011;63614;56.026;35.960;2023-05-14T06:53:19;2.33;;;1.38;;
75044;SDS011;63614;56.026;35.960;2023-05-14T06:55:48;3.22;;;1.20;;
75044;SDS011;63614;56.026;35.960;2023-05-14T06:58:15;2.78;;;1.10;;
75044;SDS011;63614;56.026;35.960;2023-05-14T07:00:41;2.03;;;1.10;;
75044;SDS011;63614;56.026;35.960;2023-05-14T07:03:07;3.33;;;1.10;;
75044;SDS011;63614;56.026;35.960;2023-05-14T07:05:35;5.60;;;1.10;;
75044;SDS011;63614;56.026;35.960;2023-05-14T07:08:06;3.75;;;1.13;;
75044;SDS011;63614;56.026;35.960;2023-05-14T07:10:32;2.55;;;1.00;;
75044;SDS011;63614;56.026;35.960;2023-05-14T07:13:00;2.72;;;1.05;;
75044;SDS011;63614;56.026;35.960;2023-05-14T07:15:26;3.25;;;1.25;;
75044;SDS011;63614;56.026;35.960;2023-05-14T07:17:51;2.28;;;1.10;;
75044;SDS011;63614;56.026;35.960;2023-05-14T07:20:20;5.35;;;1.10;;
75044;SDS011;63614;56.026;35.960;2023-05-14T07:22:48;2.00;;;1.05;;
75044;SDS011;63614;56.026;35.960;2023-05-14T07:25:14;3.13;;;1.13;;
75044;SDS011;63614;56.026;35.960;2023-05-14T07:27:40;3.97;;;1.10;;
75044;SDS011;63614;56.026;35.960;2023-05-14T07:30:06;2.15;;;1.40;;
75044;SDS011;63614;56.026;35.960;2023-05-14T07:32:32;8.75;;;1.50;;
75044;SDS011;63614;56.026;35.960;2023-05-14T07:34:58;4.00;;;1.02;;
75044;SDS011;63614;56.026;35.960;2023-05-14T07:37:24;4.80;;;1.20;;
75044;SDS011;63614;56.026;35.960;2023-05-14T07:39:50;12.27;;;1.20;;
75044;SDS011;63614;56.026;35.960;2023-05-14T07:42:17;19.87;;;1.23;;
75044;SDS011;63614;56.026;35.960;2023-05-14T07:44:42;2.97;;;1.20;;
75044;SDS011;63614;56.026;35.960;2023-05-14T07:47:08;2.05;;;1.10;;
75044;SDS011;63614;56.026;35.960;2023-05-14T07:49:35;2.63;;;1.20;;
75044;SDS011;63614;56.026;35.960;2023-05-14T07:52:01;6.03;;;0.82;;
75044;SDS011;63614;56.026;35.960;2023-05-14T07:54:27;13.65;;;1.10;;
75044;SDS011;63614;56.026;35.960;2023-05-14T07:56:53;5.57;;;1.10;;
75044;SDS011;63614;56.026;35.960;2023-05-14T07:59:18;1.70;;;0.82;;
75044;SDS011;63614;56.026;35.960;2023-05-14T08:01:44;6.18;;;1.00;;
75044;SDS011;63614;56.026;35.960;2023-05-14T08:04:10;6.13;;;1.10;;
75044;SDS011;63614;56.026;35.960;2023-05-14T08:06:36;7.85;;;1.05;;
75044;SDS011;63614;56.026;35.960;2023-05-14T08:09:02;4.10;;;1.10;;
75044;SDS011;63614;56.026;35.960;2023-05-14T08:11:30;1.95;;;0.80;;
75044;SDS011;63614;56.026;35.960;2023-05-14T08:13:56;2.30;;;0.95;;
75044;SDS011;63614;56.026;35.960;2023-05-14T08:16:21;15.48;;;1.00;;
75044;SDS011;63614;56.026;35.960;2023-05-14T08:18:47;11.55;;;0.90;;
75044;SDS011;63614;56.026;35.960;2023-05-14T08:21:13;2.38;;;0.80;;
75044;SDS011;63614;56.026;35.960;2023-05-14T08:23:39;5.60;;;0.80;;
75044;SDS011;63614;56.026;35.960;2023-05-14T08:26:05;1.75;;;0.88;;
75044;SDS011;63614;56.026;35.960;2023-05-14T08:28:31;2.05;;;0.90;;
75044;SDS011;63614;56.026;35.960;2023-05-14T08:30:57;3.45;;;0.90;;
75044;SDS011;63614;56.026;35.960;2023-05-14T08:33:23;1.52;;;0.82;;
75044;SDS011;63614;56.026;35.960;2023-05-14T08:35:49;2.28;;;0.90;;
75044;SDS011;63614;56.026;35.960;2023-05-14T08:38:17;3.35;;;1.10;;
75044;SDS011;63614;56.026;35.960;2023-05-14T08:40:48;2.40;;;0.80;;
75044;SDS011;63614;56.026;35.960;2023-05-14T08:43:25;5.32;;;1.10;;
75044;SDS011;63614;56.026;35.960;2023-05-14T08:45:57;1.98;;;0.80;;
75044;SDS011;63614;56.026;35.960;2023-05-14T08:48:28;3.13;;;0.90;;
75044;SDS011;63614;56.026;35.960;2023-05-14T08:50:57;4.53;;;1.00;;
75044;SDS011;63614;56.026;35.960;2023-05-14T08:53:24;1.83;;;1.02;;
75044;SDS011;63614;56.026;35.960;2023-05-14T08:55:50;3.13;;;1.10;;
75044;SDS011;63614;56.026;35.960;2023-05-14T08:58:18;1.73;;;0.90;;
75044;SDS011;63614;56.026;35.960;2023-05-14T09:00:44;3.67;;;0.77;;
75044;SDS011;63614;56.026;35.960;2023-05-14T09:03:10;1.33;;;0.80;;
75044;SDS011;63614;56.026;35.960;2023-05-14T09:05:37;2.78;;;0.95;;
75044;SDS011;63614;56.026;35.960;2023-05-14T09:08:04;5.95;;;1.00;;
75044;SDS011;63614;56.026;35.960;2023-05-14T09:10:30;1.30;;;0.80;;
75044;SDS011;63614;56.026;35.960;2023-05-14T09:12:56;2.00;;;1.00;;
75044;SDS011;63614;56.026;35.960;2023-05-14T09:15:22;3.15;;;0.80;;
75044;SDS011;63614;56.026;35.960;2023-05-14T09:17:51;4.05;;;1.08;;
75044;SDS011;63614;56.026;35.960;2023-05-14T09:20:18;1.35;;;0.90;;
75044;SDS011;63614;56.026;35.960;2023-05-14T09:22:44;2.35;;;1.00;;
75044;SDS011;63614;56.026;35.960;2023-05-14T09:25:09;3.05;;;0.90;;
75044;SDS011;63614;56.026;35.960;2023-05-14T09:27:38;5.57;;;1.20;;
75044;SDS011;63614;56.026;35.960;2023-05-14T09:30:08;6.00;;;1.10;;
75044;SDS011;63614;56.026;35.960;2023-05-14T09:32:39;1.42;;;0.90;;
75044;SDS011;63614;56.026;35.960;2023-05-14T09:35:08;2.63;;;1.05;;
75044;SDS011;63614;56.026;35.960;2023-05-14T09:37:35;2.83;;;0.98;;
75044;SDS011;63614;56.026;35.960;2023-05-14T09:40:06;4.68;;;1.20;;
75044;SDS011;63614;56.026;35.960;2023-05-14T09:42:35;5.15;;;0.90;;
75044;SDS011;63614;56.026;35.960;2023-05-14T09:45:01;3.10;;;0.90;;
75044;SDS011;63614;56.026;35.960;2023-05-14T09:47:29;7.60;;;1.20;;
75044;SDS011;63614;56.026;35.960;2023-05-14T09:49:56;3.63;;;1.55;;
75044;SDS011;63614;56.026;35.960;2023-05-14T09:52:25;5.18;;;1.52;;
75044;SDS011;63614;56.026;35.960;2023-05-14T09:54:51;3.95;;;1.20;;
75044;SDS011;63614;56.026;35.960;2023-05-14T09:57:18;7.03;;;1.30;;
75044;SDS011;63614;56.026;35.960;2023-05-14T09:59:44;10.07;;;1.65;;
75044;SDS011;63614;56.026;35.960;2023-05-14T10:02:52;4.28;;;1.08;;
75044;SDS011;63614;56.026;35.960;2023-05-14T10:05:05;2.13;;;1.00;;
75044;SDS011;63614;56.026;35.960;2023-05-14T10:07:34;5.50;;;1.10;;
75044;SDS011;63614;56.026;35.960;2023-05-14T10:10:05;2.35;;;1.00;;
75044;SDS011;63614;56.026;35.960;2023-05-14T10:12:35;4.80;;;1.13;;
75044;SDS011;63614;56.026;35.960;2023-05-14T10:15:11;2.40;;;1.00;;
75044;SDS011;63614;56.026;35.960;2023-05-14T10:17:43;7.10;;;1.30;;
75044;SDS011;63614;56.026;35.960;2023-05-14T10:20:14;1.77;;;0.98;;
75044;SDS011;63614;56.026;35.960;2023-05-14T10:22:43;6.95;;;1.25;;
75044;SDS011;63614;56.026;35.960;2023-05-14T10:25:09;13.27;;;1.33;;
75044;SDS011;63614;56.026;35.960;2023-05-14T10:27:35;7.22;;;1.48;;
75044;SDS011;63614;56.026;35.960;2023-05-14T10:30:03;3.60;;;1.17;;
75044;SDS011;63614;56.026;35.960;2023-05-14T10:32:35;2.08;;;1.20;;
75044;SDS011;63614;56.026;35.960;2023-05-14T10:35:06;1.40;;;0.90;;
75044;SDS011;63614;56.026;35.960;2023-05-14T10:37:44;2.05;;;1.15;;
75044;SDS011;63614;56.026;35.960;2023-05-14T10:40:11;6.90;;;1.30;;
75044;SDS011;63614;56.026;35.960;2023-05-14T10:42:38;3.08;;;1.33;;
75044;SDS011;63614;56.026;35.960;2023-05-14T10:45:06;2.60;;;1.20;;
75044;SDS011;63614;56.026;35.960;2023-05-14T10:47:37;4.93;;;1.30;;
75044;SDS011;63614;56.026;35.960;2023-05-14T10:50:23;2.50;;;1.30;;
75044;SDS011;63614;56.026;35.960;2023-05-14T10:52:50;3.28;;;1.40;;
75044;SDS011;63614;56.026;35.960;2023-05-14T10:55:16;2.30;;;1.08;;
75044;SDS011;63614;56.026;35.960;2023-05-14T10:57:44;7.88;;;1.10;;
75044;SDS011;63614;56.026;35.960;2023-05-14T11:00:11;4.40;;;1.30;;
75044;SDS011;63614;56.026;35.960;2023-05-14T11:02:39;5.38;;;1.27;;
75044;SDS011;63614;56.026;35.960;2023-05-14T11:05:07;4.55;;;1.17;;
75044;SDS011;63614;56.026;35.960;2023-05-14T11:07:48;3.83;;;1.17;;
75044;SDS011;63614;56.026;35.960;2023-05-14T11:10:18;3.22;;;1.30;;
75044;SDS011;63614;56.026;35.960;2023-05-14T11:12:47;3.35;;;1.10;;
75044;SDS011;63614;56.026;35.960;2023-05-14T11:15:16;3.95;;;0.93;;
75044;SDS011;63614;56.026;35.960;2023-05-14T11:17:44;3.28;;;1.20;;
75044;SDS011;63614;56.026;35.960;2023-05-14T11:20:29;2.70;;;1.20;;
75044;SDS011;63614;56.026;35.960;2023-05-14T11:25:22;2.35;;;0.95;;
75044;SDS011;63614;56.026;35.960;2023-05-14T11:27:50;13.15;;;1.42;;
75044;SDS011;63614;56.026;35.960;2023-05-14T11:30:17;12.10;;;1.63;;
75044;SDS011;63614;56.026;35.960;2023-05-14T11:32:45;6.13;;;1.25;;
75044;SDS011;63614;56.026;35.960;2023-05-14T11:35:12;2.38;;;1.10;;
75044;SDS011;63614;56.026;35.960;2023-05-14T11:37:38;2.70;;;1.30;;
75044;SDS011;63614;56.026;35.960;2023-05-14T11:40:22;4.53;;;1.20;;
75044;SDS011;63614;56.026;35.960;2023-05-14T11:42:49;2.25;;;1.30;;
75044;SDS011;63614;56.026;35.960;2023-05-14T11:45:24;4.05;;;1.40;;
75044;SDS011;63614;56.026;35.960;2023-05-14T11:47:51;2.25;;;1.20;;
75044;SDS011;63614;56.026;35.960;2023-05-14T11:50:17;5.70;;;1.20;;
75044;SDS011;63614;56.026;35.960;2023-05-14T11:52:42;2.90;;;1.10;;
75044;SDS011;63614;56.026;35.960;2023-05-14T11:55:11;4.45;;;1.30;;
75044;SDS011;63614;56.026;35.960;2023-05-14T11:57:37;2.10;;;1.00;;
75044;SDS011;63614;56.026;35.960;2023-05-14T12:00:06;2.80;;;1.30;;
75044;SDS011;63614;56.026;35.960;2023-05-14T12:02:37;4.03;;;1.40;;
75044;SDS011;63614;56.026;35.960;2023-05-14T12:05:04;6.00;;;1.33;;
75044;SDS011;63614;56.026;35.960;2023-05-14T12:07:34;2.95;;;1.20;;
75044;SDS011;63614;56.026;35.960;2023-05-14T12:10:01;3.97;;;1.40;;
75044;SDS011;63614;56.026;35.960;2023-05-14T12:12:33;2.42;;;1.30;;
75044;SDS011;63614;56.026;35.960;2023-05-14T12:15:01;2.45;;;1.50;;
75044;SDS011;63614;56.026;35.960;2023-05-14T12:17:29;10.75;;;1.48;;
75044;SDS011;63614;56.026;35.960;2023-05-14T12:19:57;7.43;;;1.20;;
75044;SDS011;63614;56.026;35.960;2023-05-14T12:22:22;9.15;;;1.48;;
75044;SDS011;63614;56.026;35.960;2023-05-14T12:24:52;2.92;;;1.30;;
75044;SDS011;63614;56.026;35.960;2023-05-14T12:27:20;3.25;;;1.30;;
75044;SDS011;63614;56.026;35.960;2023-05-14T12:30:00;7.18;;;1.30;;
75044;SDS011;63614;56.026;35.960;2023-05-14T12:32:33;6.22;;;1.30;;
75044;SDS011;63614;56.026;35.960;2023-05-14T12:37:25;5.40;;;1.30;;
75044;SDS011;63614;56.026;35.960;2023-05-14T12:39:52;5.50;;;1.30;;
75044;SDS011;63614;56.026;35.960;2023-05-14T12:42:18;3.80;;;1.20;;
75044;SDS011;63614;56.026;35.960;2023-05-14T12:44:43;5.25;;;1.10;;
75044;SDS011;63614;56.026;35.960;2023-05-14T12:47:09;3.22;;;1.25;;
75044;SDS011;63614;56.026;35.960;2023-05-14T12:49:35;2.35;;;1.30;;
75044;SDS011;63614;56.026;35.960;2023-05-14T12:52:01;1.63;;;1.10;;
75044;SDS011;63614;56.026;35.960;2023-05-14T12:54:27;3.30;;;1.10;;
75044;SDS011;63614;56.026;35.960;2023-05-14T12:56:53;2.42;;;1.20;;
75044;SDS011;63614;56.026;35.960;2023-05-14T12:59:19;1.88;;;1.20;;
75044;SDS011;63614;56.026;35.960;2023-05-14T13:01:45;2.00;;;1.23;;
75044;SDS011;63614;56.026;35.960;2023-05-14T13:04:11;1.52;;;1.00;;
75044;SDS011;63614;56.026;35.960;2023-05-14T13:06:39;4.43;;;1.23;;
75044;SDS011;63614;56.026;35.960;2023-05-14T13:09:05;10.52;;;1.38;;
75044;SDS011;63614;56.026;35.960;2023-05-14T13:11:33;1.65;;;1.10;;
75044;SDS011;63614;56.026;35.960;2023-05-14T13:13:59;3.47;;;1.40;;
75044;SDS011;63614;56.026;35.960;2023-05-14T13:16:26;8.77;;;1.17;;
75044;SDS011;63614;56.026;35.960;2023-05-14T13:18:52;11.93;;;1.10;;
75044;SDS011;63614;56.026;35.960;2023-05-14T13:21:18;4.82;;;1.17;;
75044;SDS011;63614;56.026;35.960;2023-05-14T13:23:44;8.80;;;1.40;;
75044;SDS011;63614;56.026;35.960;2023-05-14T13:26:11;1.85;;;1.00;;
75044;SDS011;63614;56.026;35.960;2023-05-14T13:28:37;8.20;;;1.30;;
75044;SDS011;63614;56.026;35.960;2023-05-14T13:31:07;6.35;;;1.10;;
75044;SDS011;63614;56.026;35.960;2023-05-14T13:33:34;3.10;;;1.20;;
75044;SDS011;63614;56.026;35.960;2023-05-14T13:36:01;1.73;;;1.02;;
75044;SDS011;63614;56.026;35.960;2023-05-14T13:38:28;3.60;;;1.40;;
75044;SDS011;63614;56.026;35.960;2023-05-14T13:40:54;1.83;;;1.02;;
75044;SDS011;63614;56.026;35.960;2023-05-14T13:43:22;3.03;;;1.20;;
75044;SDS011;63614;56.026;35.960;2023-05-14T13:45:48;4.83;;;1.10;;
75044;SDS011;63614;56.026;35.960;2023-05-14T13:50:43;1.90;;;1.10;;
75044;SDS011;63614;56.026;35.960;2023-05-14T13:53:09;2.75;;;1.20;;
75044;SDS011;63614;56.026;35.960;2023-05-14T13:55:35;10.63;;;1.58;;
75044;SDS011;63614;56.026;35.960;2023-05-14T13:58:01;7.97;;;1.45;;
75044;SDS011;63614;56.026;35.960;2023-05-14T14:00:27;4.50;;;1.33;;
75044;SDS011;63614;56.026;35.960;2023-05-14T14:02:53;2.00;;;1.20;;
75044;SDS011;63614;56.026;35.960;2023-05-14T14:05:19;2.28;;;1.25;;
75044;SDS011;63614;56.026;35.960;2023-05-14T14:07:45;2.20;;;1.20;;
75044;SDS011;63614;56.026;35.960;2023-05-14T14:10:11;5.15;;;1.60;;
75044;SDS011;63614;56.026;35.960;2023-05-14T14:12:37;4.20;;;1.30;;
75044;SDS011;63614;56.026;35.960;2023-05-14T14:15:04;5.78;;;0.90;;
75044;SDS011;63614;56.026;35.960;2023-05-14T14:17:32;1.98;;;1.20;;
75044;SDS011;63614;56.026;35.960;2023-05-14T14:19:59;6.28;;;1.10;;
75044;SDS011;63614;56.026;35.960;2023-05-14T14:22:25;4.90;;;1.00;;
75044;SDS011;63614;56.026;35.960;2023-05-14T14:24:50;3.85;;;1.20;;
75044;SDS011;63614;56.026;35.960;2023-05-14T14:27:16;2.55;;;1.00;;
75044;SDS011;63614;56.026;35.960;2023-05-14T14:29:42;5.78;;;1.10;;
75044;SDS011;63614;56.026;35.960;2023-05-14T14:32:08;8.63;;;1.15;;
75044;SDS011;63614;56.026;35.960;2023-05-14T14:34:34;11.52;;;1.20;;
75044;SDS011;63614;56.026;35.960;2023-05-14T14:37:00;6.18;;;1.20;;
75044;SDS011;63614;56.026;35.960;2023-05-14T14:39:25;3.05;;;1.13;;
75044;SDS011;63614;56.026;35.960;2023-05-14T14:41:51;2.33;;;1.20;;
75044;SDS011;63614;56.026;35.960;2023-05-14T14:44:17;3.13;;;1.55;;
75044;SDS011;63614;56.026;35.960;2023-05-14T14:46:43;6.53;;;1.45;;
75044;SDS011;63614;56.026;35.960;2023-05-14T14:49:09;3.85;;;1.20;;
75044;SDS011;63614;56.026;35.960;2023-05-14T14:51:34;5.18;;;1.40;;